Time;durP1;ratioP1;P1;durP2;ratioP2;P2;SDS_P1;SDS_P2;PMS_P1;PMS_P2;Temp;Humidity;BMP_temperature;BMP_pressure;BME280_temperature;BME280_humidity;BME280_pressure;Samples;Min_cycle;Max_cycle;Signal;HPM_P1;HPM_P2
2022/07/22 00:00:58;;;;;;;13.87;12.47;;;22.00;99.90;;;;;;5012510;28;20498;-83
2022/07/22 00:03:25;;;;;;;13.80;12.27;;;22.00;99.90;;;;;;5016584;28;20446;-82
2022/07/22 00:05:52;;;;;;;13.80;12.70;;;21.90;99.90;;;;;;5012083;28;20459;-83
2022/07/22 00:08:20;;;;;;;14.70;12.70;;;21.90;99.90;;;;;;5020711;28;20419;-82
2022/07/22 00:10:47;;;;;;;14.00;12.60;;;22.00;99.90;;;;;;5015274;28;20466;-83
2022/07/22 00:13:13;;;;;;;14.40;13.00;;;22.00;99.90;;;;;;5016994;28;20454;-83
2022/07/22 00:15:40;;;;;;;13.47;12.17;;;22.00;99.90;;;;;;5010169;28;20447;-83
2022/07/22 00:18:07;;;;;;;15.47;14.07;;;22.00;99.90;;;;;;5015992;28;20549;-83
2022/07/22 00:20:34;;;;;;;14.13;12.73;;;22.00;99.90;;;;;;5009879;28;20479;-83
2022/07/22 00:23:00;;;;;;;13.70;12.30;;;22.00;99.90;;;;;;5010220;28;20447;-83
2022/07/22 00:25:29;;;;;;;16.63;14.37;;;21.90;99.90;;;;;;5010563;28;20447;-83
2022/07/22 00:27:55;;;;;;;12.83;11.63;;;21.90;99.90;;;;;;5021314;28;20439;-83
2022/07/22 00:30:22;;;;;;;14.37;12.90;;;21.80;99.90;;;;;;5013118;28;20441;-82
2022/07/22 00:32:49;;;;;;;13.90;12.50;;;21.80;99.90;;;;;;5006382;28;20443;-83
2022/07/22 00:35:16;;;;;;;13.30;11.47;;;21.70;99.90;;;;;;4999432;28;20446;-82
2022/07/22 00:37:43;;;;;;;13.20;11.40;;;21.70;99.90;;;;;;5002584;28;20450;-81
2022/07/22 00:40:11;;;;;;;13.47;12.20;;;21.60;99.90;;;;;;5007373;28;20851;-82
2022/07/22 00:42:39;;;;;;;12.90;11.60;;;21.60;99.90;;;;;;5007391;28;20470;-81
2022/07/22 00:45:07;;;;;;;12.43;11.23;;;21.60;99.90;;;;;;5006887;28;20439;-82
2022/07/22 00:47:34;;;;;;;12.17;11.07;;;21.50;99.90;;;;;;5009750;28;20833;-82
2022/07/22 00:50:01;;;;;;;14.47;12.83;;;21.50;99.90;;;;;;5008726;28;20574;-81
2022/07/22 00:52:28;;;;;;;11.00;10.10;;;21.40;99.90;;;;;;5010671;28;20474;-82
2022/07/22 00:54:56;;;;;;;13.30;12.00;;;21.40;99.90;;;;;;5013889;28;20435;-82
2022/07/22 00:57:23;;;;;;;15.03;12.30;;;21.40;99.90;;;;;;5021198;28;20534;-84
2022/07/22 00:59:51;;;;;;;14.10;12.53;;;21.30;99.90;;;;;;5024804;28;20524;-83
2022/07/22 01:02:19;;;;;;;12.60;11.30;;;21.30;99.90;;;;;;5016446;28;20936;-84
2022/07/22 01:04:46;;;;;;;14.70;13.30;;;21.20;99.90;;;;;;5018244;28;20542;-85
2022/07/22 01:07:12;;;;;;;14.57;13.10;;;21.20;99.90;;;;;;5015210;28;20443;-85
2022/07/22 01:09:43;;;;;;;13.73;12.33;;;21.30;99.90;;;;;;5013770;28;20522;-84
2022/07/22 01:12:10;;;;;;;13.20;12.13;;;21.20;99.90;;;;;;5019271;28;20477;-85
2022/07/22 01:14:37;;;;;;;13.60;11.80;;;21.20;99.90;;;;;;5021483;28;20457;-83
2022/07/22 01:17:05;;;;;;;14.13;12.73;;;21.20;99.90;;;;;;5018764;28;20447;-83
2022/07/22 01:19:32;;;;;;;13.97;12.73;;;21.10;99.90;;;;;;5017422;28;20521;-83
2022/07/22 01:22:00;;;;;;;14.30;12.83;;;21.00;99.90;;;;;;5017210;28;20984;-84
2022/07/22 01:24:27;;;;;;;13.13;11.90;;;21.00;99.90;;;;;;5011561;28;20450;-83
2022/07/22 01:26:53;;;;;;;13.40;12.10;;;21.00;99.90;;;;;;5015352;28;20450;-83
2022/07/22 01:29:20;;;;;;;13.40;12.30;;;21.00;99.90;;;;;;5012387;28;20440;-83
2022/07/22 01:31:47;;;;;;;14.77;13.47;;;21.10;99.90;;;;;;5010625;28;20579;-84
2022/07/22 01:34:14;;;;;;;14.10;12.90;;;21.10;99.90;;;;;;5017364;28;21182;-84
2022/07/22 01:36:40;;;;;;;14.20;12.77;;;21.00;99.90;;;;;;5012361;28;20455;-82
2022/07/22 01:39:09;;;;;;;14.33;12.87;;;21.00;99.90;;;;;;5012035;28;20453;-82
2022/07/22 01:41:35;;;;;;;14.13;12.83;;;20.90;99.90;;;;;;5013670;28;20461;-82
2022/07/22 01:44:02;;;;;;;14.30;12.87;;;20.90;99.90;;;;;;5017211;28;20443;-82
2022/07/22 01:46:29;;;;;;;16.03;14.57;;;20.90;99.90;;;;;;5010577;28;20459;-82
2022/07/22 01:48:56;;;;;;;15.30;14.00;;;20.90;99.90;;;;;;5010896;28;20454;-82
2022/07/22 01:51:23;;;;;;;16.50;14.80;;;20.90;99.90;;;;;;5016919;28;20500;-82
2022/07/22 01:53:50;;;;;;;15.27;13.67;;;20.90;99.90;;;;;;5013784;28;20443;-82
2022/07/22 01:56:18;;;;;;;14.13;12.83;;;20.80;99.90;;;;;;5013352;28;20440;-82
2022/07/22 01:58:45;;;;;;;14.30;13.03;;;20.70;99.90;;;;;;5010840;28;20847;-82
2022/07/22 02:01:11;;;;;;;14.53;13.00;;;20.70;99.90;;;;;;5012077;28;20478;-82
2022/07/22 02:03:38;;;;;;;13.57;12.40;;;20.70;99.90;;;;;;5014301;28;20455;-82
2022/07/22 02:06:05;;;;;;;14.97;13.67;;;20.60;99.90;;;;;;5018036;28;20440;-82
2022/07/22 02:08:33;;;;;;;14.97;13.67;;;20.60;99.90;;;;;;5019862;28;20442;-82
2022/07/22 02:11:00;;;;;;;14.47;13.07;;;20.60;99.90;;;;;;5014610;28;20454;-82
2022/07/22 02:13:28;;;;;;;14.80;13.43;;;20.60;99.90;;;;;;5027392;28;20436;-82
2022/07/22 02:15:54;;;;;;;14.60;13.30;;;20.60;99.90;;;;;;5018600;28;20442;-81
2022/07/22 02:18:21;;;;;;;15.77;14.27;;;20.60;99.90;;;;;;5013983;28;20445;-82
2022/07/22 02:20:48;;;;;;;16.07;14.53;;;20.50;99.90;;;;;;5018723;28;20991;-82
2022/07/22 02:23:15;;;;;;;16.20;14.63;;;20.40;99.90;;;;;;5022986;28;20454;-81
2022/07/22 02:25:43;;;;;;;15.33;14.00;;;20.50;99.90;;;;;;5016723;28;20443;-82
2022/07/22 02:28:10;;;;;;;17.13;15.60;;;20.40;99.90;;;;;;5029079;28;20435;-82
2022/07/22 02:30:38;;;;;;;15.83;14.53;;;20.40;99.90;;;;;;5021755;28;20815;-82
2022/07/22 02:33:05;;;;;;;16.40;15.10;;;20.40;99.90;;;;;;5021823;28;20435;-82
2022/07/22 02:35:32;;;;;;;15.83;14.30;;;20.30;99.90;;;;;;5012356;28;20462;-82
2022/07/22 02:37:59;;;;;;;15.77;14.30;;;20.30;99.90;;;;;;5016689;28;21026;-81
2022/07/22 02:40:26;;;;;;;15.50;14.13;;;20.30;99.90;;;;;;5007374;28;20515;-82
2022/07/22 02:42:53;;;;;;;15.00;13.60;;;20.30;99.90;;;;;;5011108;28;20947;-82
2022/07/22 02:45:19;;;;;;;12.97;11.60;;;20.20;99.90;;;;;;5007579;28;20458;-83
2022/07/22 02:47:50;;;;;;;13.30;12.07;;;20.30;99.90;;;;;;5007902;28;20945;-82
2022/07/22 02:50:17;;;;;;;13.93;12.63;;;20.30;99.90;;;;;;5009673;28;20457;-81
2022/07/22 02:52:43;;;;;;;13.10;12.00;;;20.30;99.90;;;;;;5020278;28;20455;-82
2022/07/22 02:55:10;;;;;;;14.53;12.27;;;20.40;99.90;;;;;;5012660;28;20443;-82
2022/07/22 02:57:38;;;;;;;13.40;12.10;;;20.40;99.90;;;;;;5013207;28;20966;-82
2022/07/22 03:00:06;;;;;;;13.10;11.93;;;20.40;99.90;;;;;;5012151;28;20541;-82
2022/07/22 03:02:33;;;;;;;14.23;12.83;;;20.30;99.90;;;;;;5013645;28;20466;-82
2022/07/22 03:05:01;;;;;;;13.60;12.30;;;20.40;99.90;;;;;;5011775;28;20430;-81
2022/07/22 03:07:28;;;;;;;14.57;13.27;;;20.40;99.90;;;;;;5015442;28;20446;-81
2022/07/22 03:09:54;;;;;;;15.13;13.50;;;20.30;99.90;;;;;;5012443;28;20439;-81
2022/07/22 03:12:21;;;;;;;13.07;11.97;;;20.30;99.90;;;;;;5009252;28;20471;-81
2022/07/22 03:14:48;;;;;;;12.40;11.30;;;20.20;99.90;;;;;;5005822;28;20450;-82
2022/07/22 03:17:14;;;;;;;13.57;12.30;;;20.30;99.90;;;;;;5019603;28;20442;-81
2022/07/22 03:19:41;;;;;;;12.47;11.47;;;20.30;99.90;;;;;;5019051;28;20477;-81
2022/07/22 03:22:09;;;;;;;13.33;12.03;;;20.30;99.90;;;;;;5014414;28;20458;-82
2022/07/22 03:24:36;;;;;;;13.70;12.27;;;20.30;99.90;;;;;;5012222;28;20461;-82
2022/07/22 03:27:02;;;;;;;14.53;13.17;;;20.20;99.90;;;;;;5008742;28;20435;-82
2022/07/22 03:29:29;;;;;;;14.37;12.97;;;20.20;99.90;;;;;;5012745;28;20443;-82
2022/07/22 03:31:56;;;;;;;13.10;11.67;;;20.20;99.90;;;;;;5014208;28;20454;-81
2022/07/22 03:34:23;;;;;;;13.97;12.73;;;20.20;99.90;;;;;;5017228;28;20447;-82
2022/07/22 03:36:49;;;;;;;12.63;11.63;;;20.20;99.90;;;;;;5016778;28;20502;-81
2022/07/22 03:39:17;;;;;;;12.17;11.07;;;20.20;99.90;;;;;;5014527;28;20446;-82
2022/07/22 03:41:44;;;;;;;13.77;12.47;;;20.20;99.90;;;;;;5010763;28;20565;-82
2022/07/22 03:44:10;;;;;;;13.70;12.37;;;20.20;99.90;;;;;;5015476;28;20446;-82
2022/07/22 03:46:37;;;;;;;13.90;12.80;;;20.20;99.90;;;;;;5011941;28;20451;-82
2022/07/22 03:49:04;;;;;;;12.43;11.33;;;20.20;99.90;;;;;;5018900;28;20435;-82
2022/07/22 03:51:30;;;;;;;15.57;14.27;;;20.20;99.90;;;;;;5009362;28;20459;-82
2022/07/22 03:53:57;;;;;;;14.40;13.10;;;20.20;99.90;;;;;;5009582;28;20449;-83
2022/07/22 03:56:25;;;;;;;15.27;13.97;;;20.20;99.90;;;;;;5013904;28;20494;-82
2022/07/22 03:58:52;;;;;;;14.50;13.00;;;20.20;99.90;;;;;;5007552;28;20439;-82
2022/07/22 04:01:18;;;;;;;13.57;12.37;;;20.20;99.90;;;;;;5014753;28;20926;-81
2022/07/22 04:03:45;;;;;;;14.43;11.43;;;20.20;99.90;;;;;;5017190;28;20454;-81
2022/07/22 04:06:12;;;;;;;15.53;13.70;;;20.20;99.90;;;;;;5017237;28;20443;-82
2022/07/22 04:08:38;;;;;;;14.60;13.20;;;20.10;99.90;;;;;;5016177;28;20438;-82
2022/07/22 04:11:05;;;;;;;14.50;13.20;;;20.10;99.90;;;;;;5019505;28;20983;-81
2022/07/22 04:13:33;;;;;;;15.00;13.80;;;20.10;99.90;;;;;;5026530;28;20435;-81
2022/07/22 04:16:00;;;;;;;13.63;12.53;;;20.10;99.90;;;;;;5019300;28;20462;-81
2022/07/22 04:18:27;;;;;;;14.47;13.27;;;20.20;99.90;;;;;;5015309;28;20435;-81
2022/07/22 04:20:53;;;;;;;14.40;13.07;;;20.10;99.90;;;;;;5019383;28;20499;-81
2022/07/22 04:23:20;;;;;;;15.70;14.30;;;20.10;99.90;;;;;;5024161;28;20423;-81
2022/07/22 04:25:47;;;;;;;13.53;12.13;;;20.10;99.90;;;;;;5031923;28;20823;-82
2022/07/22 04:28:14;;;;;;;14.17;12.97;;;20.10;99.90;;;;;;5022512;28;20466;-81
2022/07/22 04:30:42;;;;;;;14.83;13.37;;;20.10;99.90;;;;;;5028913;28;20468;-82
2022/07/22 04:33:08;;;;;;;15.33;13.93;;;20.10;99.90;;;;;;5024711;28;20442;-82
2022/07/22 04:35:35;;;;;;;14.77;13.20;;;20.20;99.90;;;;;;5018674;28;20478;-82
2022/07/22 04:38:02;;;;;;;15.87;14.33;;;20.20;99.90;;;;;;5018277;28;20447;-82
2022/07/22 04:40:28;;;;;;;14.83;13.37;;;20.20;99.90;;;;;;5020486;28;20481;-81
2022/07/22 04:42:55;;;;;;;13.33;12.10;;;20.30;99.90;;;;;;5026228;28;20836;-81
2022/07/22 04:45:22;;;;;;;14.80;13.30;;;20.30;99.90;;;;;;5018220;28;20450;-81
2022/07/22 04:47:50;;;;;;;16.33;14.87;;;20.40;99.90;;;;;;5019973;28;20440;-82
2022/07/22 04:50:17;;;;;;;14.23;12.80;;;20.40;99.90;;;;;;5018896;28;20436;-82
2022/07/22 04:52:43;;;;;;;16.50;15.10;;;20.40;99.90;;;;;;5017878;28;20441;-81
2022/07/22 04:55:10;;;;;;;16.10;14.60;;;20.50;99.90;;;;;;5014518;28;20995;-82
2022/07/22 04:57:37;;;;;;;14.10;13.00;;;20.50;99.90;;;;;;5011858;28;20446;-82
2022/07/22 05:00:05;;;;;;;15.83;14.33;;;20.60;99.90;;;;;;5014699;28;20494;-82
2022/07/22 05:02:32;;;;;;;15.80;14.30;;;20.60;99.90;;;;;;5015256;28;21094;-82
2022/07/22 05:05:00;;;;;;;14.80;13.50;;;20.60;99.90;;;;;;5008413;28;21033;-82
2022/07/22 05:07:27;;;;;;;13.67;12.57;;;20.60;99.90;;;;;;5016696;28;20481;-82
2022/07/22 05:09:53;;;;;;;15.20;13.70;;;20.60;99.90;;;;;;5007404;28;20445;-80
2022/07/22 05:12:20;;;;;;;15.53;14.00;;;20.70;99.90;;;;;;5005652;28;20470;-81
2022/07/22 05:14:46;;;;;;;14.63;13.33;;;20.70;99.90;;;;;;5010538;28;20450;-82
2022/07/22 05:17:13;;;;;;;14.67;13.30;;;20.70;99.90;;;;;;5025285;28;20439;-82
2022/07/22 05:19:41;;;;;;;15.07;12.87;;;21.00;99.90;;;;;;5015814;28;20449;-82
2022/07/22 05:22:09;;;;;;;14.67;13.43;;;21.50;99.90;;;;;;5017745;28;20485;-82
2022/07/22 05:24:36;;;;;;;15.47;14.07;;;22.10;99.90;;;;;;5015407;28;20450;-82
2022/07/22 05:27:03;;;;;;;13.30;12.20;;;22.70;99.90;;;;;;5022334;28;20435;-82
2022/07/22 05:29:30;;;;;;;14.70;13.40;;;23.30;99.90;;;;;;5014839;28;20453;-82
2022/07/22 05:31:57;;;;;;;14.13;12.83;;;23.70;99.90;;;;;;5017809;28;20986;-82
2022/07/22 05:34:24;;;;;;;14.03;12.80;;;24.10;99.90;;;;;;5026420;28;20427;-82
2022/07/22 05:36:51;;;;;;;13.87;12.63;;;24.60;99.30;;;;;;5026608;28;20435;-82
2022/07/22 05:39:19;;;;;;;13.50;12.40;;;24.90;97.80;;;;;;5029117;28;20451;-82
2022/07/22 05:41:46;;;;;;;15.87;14.57;;;25.10;97.00;;;;;;5024183;28;20478;-82
2022/07/22 05:44:13;;;;;;;15.83;14.40;;;25.20;96.20;;;;;;5014749;28;20450;-82
2022/07/22 05:46:40;;;;;;;15.50;14.03;;;25.50;95.50;;;;;;5019983;28;20448;-83
2022/07/22 05:49:06;;;;;;;14.80;13.70;;;25.60;95.10;;;;;;5019993;28;20442;-81
2022/07/22 05:51:34;;;;;;;13.20;12.20;;;26.00;94.30;;;;;;5022905;28;20455;-81
2022/07/22 05:54:02;;;;;;;14.93;13.73;;;26.20;93.30;;;;;;5022685;28;20458;-82
2022/07/22 05:56:30;;;;;;;14.03;12.73;;;26.40;92.50;;;;;;5021827;28;20441;-82
2022/07/22 05:58:56;;;;;;;13.87;12.77;;;26.80;91.70;;;;;;5018330;28;20445;-82
2022/07/22 06:01:23;;;;;;;15.07;13.87;;;27.20;90.60;;;;;;5019630;28;20482;-82
2022/07/22 06:03:50;;;;;;;14.13;13.00;;;27.30;89.40;;;;;;5009618;28;20470;-83
2022/07/22 06:06:17;;;;;;;13.97;12.80;;;27.40;88.60;;;;;;5019863;28;20508;-80
2022/07/22 06:08:43;;;;;;;13.60;12.50;;;27.80;87.00;;;;;;5025664;28;20439;-81
2022/07/22 06:11:10;;;;;;;14.47;13.27;;;28.10;85.40;;;;;;5018733;28;20471;-82
2022/07/22 06:13:38;;;;;;;14.43;13.00;;;28.30;83.30;;;;;;5016863;28;20444;-82
2022/07/22 06:16:06;;;;;;;13.77;12.67;;;28.20;82.90;;;;;;5019976;28;20415;-82
2022/07/22 06:18:32;;;;;;;14.20;13.10;;;28.50;82.10;;;;;;5026383;28;20433;-83
2022/07/22 06:20:59;;;;;;;13.70;12.70;;;28.50;81.10;;;;;;5006836;28;20481;-82
2022/07/22 06:23:26;;;;;;;13.00;11.80;;;28.70;80.50;;;;;;5012891;28;20440;-83
2022/07/22 06:25:53;;;;;;;12.20;11.20;;;29.20;79.00;;;;;;5011777;28;20439;-81
2022/07/22 06:28:19;;;;;;;13.23;12.23;;;29.60;76.70;;;;;;5011615;28;20446;-81
2022/07/22 06:30:47;;;;;;;14.00;12.63;;;29.80;74.90;;;;;;5024343;28;20453;-81
2022/07/22 06:33:14;;;;;;;12.70;11.80;;;30.00;73.80;;;;;;5012496;28;20929;-81
2022/07/22 06:35:41;;;;;;;12.60;11.37;;;30.30;72.20;;;;;;5010262;28;20449;-81
2022/07/22 06:38:09;;;;;;;13.47;12.37;;;30.70;70.90;;;;;;5018317;28;20445;-81
2022/07/22 06:40:35;;;;;;;13.20;12.13;;;31.20;69.00;;;;;;5016342;28;20507;-81
2022/07/22 06:43:03;;;;;;;14.00;12.93;;;31.50;66.70;;;;;;5013548;28;20451;-81
2022/07/22 06:45:30;;;;;;;14.20;13.00;;;31.60;65.10;;;;;;5020405;28;20892;-82
2022/07/22 06:47:58;;;;;;;13.20;12.20;;;31.80;64.50;;;;;;5012258;28;20446;-81
2022/07/22 06:50:25;;;;;;;12.53;11.63;;;32.00;63.70;;;;;;5017611;28;20440;-81
2022/07/22 06:52:52;;;;;;;13.40;12.50;;;32.20;63.00;;;;;;5013756;28;20444;-82
2022/07/22 06:55:19;;;;;;;13.80;12.80;;;32.60;61.10;;;;;;5005009;28;20947;-82
2022/07/22 06:57:45;;;;;;;14.37;13.13;;;32.70;60.30;;;;;;5011938;28;20434;-82
2022/07/22 07:00:13;;;;;;;13.40;12.33;;;32.80;59.90;;;;;;5015211;28;20936;-82
2022/07/22 07:02:40;;;;;;;14.30;13.20;;;32.80;60.40;;;;;;5016817;28;20497;-82
2022/07/22 07:05:09;;;;;;;14.27;13.17;;;32.20;60.40;;;;;;5013740;28;20972;-83
2022/07/22 07:07:36;;;;;;;12.67;11.77;;;32.30;60.30;;;;;;5016092;28;20455;-82
2022/07/22 07:10:03;;;;;;;13.10;12.10;;;32.40;59.80;;;;;;5018445;28;20448;-82
2022/07/22 07:12:30;;;;;;;13.03;11.93;;;32.50;60.20;;;;;;5008280;28;20489;-82
2022/07/22 07:14:56;;;;;;;12.37;11.57;;;32.60;59.50;;;;;;5008958;28;20786;-82
2022/07/22 07:17:24;;;;;;;12.73;11.40;;;32.80;59.10;;;;;;5010867;28;20452;-83
2022/07/22 07:19:50;;;;;;;12.57;11.77;;;33.10;57.90;;;;;;5012251;28;20464;-83
2022/07/22 07:22:18;;;;;;;15.07;13.87;;;33.40;57.10;;;;;;5005967;28;21038;-82
2022/07/22 07:24:45;;;;;;;13.67;12.73;;;32.70;58.30;;;;;;4999400;28;20448;-82
2022/07/22 07:27:12;;;;;;;12.97;12.07;;;33.00;58.40;;;;;;5014938;28;20438;-83
2022/07/22 07:29:38;;;;;;;12.80;11.73;;;33.70;57.20;;;;;;5009855;28;20472;-83
2022/07/22 07:32:06;;;;;;;14.77;13.50;;;34.30;55.70;;;;;;5008957;28;20475;-83
2022/07/22 07:34:32;;;;;;;12.57;11.67;;;34.50;54.20;;;;;;5000804;28;20856;-83
2022/07/22 07:36:59;;;;;;;14.67;13.40;;;34.40;53.80;;;;;;5004747;28;20442;-83
2022/07/22 07:39:27;;;;;;;13.03;12.03;;;34.50;53.70;;;;;;5009343;28;20525;-83
2022/07/22 07:41:54;;;;;;;12.20;11.30;;;34.20;53.90;;;;;;5018049;28;20485;-82
2022/07/22 07:44:20;;;;;;;12.60;11.70;;;34.60;53.20;;;;;;5024165;28;20496;-82
2022/07/22 07:46:47;;;;;;;12.40;11.50;;;35.10;52.20;;;;;;5022544;28;20448;-83
2022/07/22 07:49:14;;;;;;;12.60;11.40;;;35.20;51.60;;;;;;5013087;28;20443;-83
2022/07/22 07:51:41;;;;;;;13.23;11.60;;;35.70;51.10;;;;;;5016076;28;20989;-83
2022/07/22 07:54:07;;;;;;;12.23;11.30;;;35.40;51.40;;;;;;5009196;28;20450;-83
2022/07/22 07:56:35;;;;;;;12.43;11.63;;;35.70;51.00;;;;;;5017622;28;20456;-83
2022/07/22 07:59:02;;;;;;;12.63;11.57;;;36.30;50.40;;;;;;5006893;28;20499;-83
2022/07/22 08:01:29;;;;;;;11.80;10.90;;;36.40;49.60;;;;;;5009441;28;20476;-82
2022/07/22 08:03:55;;;;;;;12.23;11.20;;;35.90;49.10;;;;;;5019139;28;20549;-83
2022/07/22 08:06:22;;;;;;;12.70;11.70;;;35.40;50.10;;;;;;5012983;28;20454;-83
2022/07/22 08:08:49;;;;;;;11.00;10.30;;;35.90;50.20;;;;;;5017716;28;20528;-83
2022/07/22 08:11:16;;;;;;;10.23;9.43;;;36.70;49.10;;;;;;5024107;28;20466;-82
2022/07/22 08:13:44;;;;;;;11.33;10.53;;;36.80;48.00;;;;;;5023843;28;20445;-83
2022/07/22 08:16:10;;;;;;;12.63;11.73;;;36.70;48.30;;;;;;5012435;28;20481;-83
2022/07/22 08:18:37;;;;;;;11.00;10.30;;;36.90;47.70;;;;;;5012942;28;20457;-83
2022/07/22 08:21:04;;;;;;;11.27;10.40;;;37.60;46.70;;;;;;5025151;28;20458;-83
2022/07/22 08:23:31;;;;;;;11.23;10.43;;;38.20;46.30;;;;;;5024596;28;20454;-83
2022/07/22 08:25:57;;;;;;;10.17;9.47;;;38.90;45.00;;;;;;5017834;28;20474;-89
2022/07/22 08:28:24;;;;;;;11.90;11.00;;;39.00;44.40;;;;;;5018188;28;20445;-88
2022/07/22 08:30:52;;;;;;;11.30;10.50;;;39.70;43.20;;;;;;5025911;28;20466;-88
2022/07/22 08:33:19;;;;;;;10.00;9.20;;;38.60;44.50;;;;;;5031676;28;20529;-88
2022/07/22 08:35:46;;;;;;;10.63;9.80;;;39.20;44.20;;;;;;5031647;28;20430;-89
2022/07/22 08:38:13;;;;;;;11.07;10.27;;;39.80;42.80;;;;;;5015022;28;20442;-90
2022/07/22 08:40:39;;;;;;;10.97;10.07;;;40.30;41.70;;;;;;5002893;28;20467;-89
2022/07/22 08:43:06;;;;;;;10.20;9.40;;;39.50;42.10;;;;;;5012776;28;20458;-89
2022/07/22 08:45:33;;;;;;;10.40;9.60;;;39.60;42.50;;;;;;5008873;28;20451;-89
2022/07/22 08:48:03;;;;;;;10.30;9.53;;;39.10;43.20;;;;;;5012965;28;20458;-88
2022/07/22 08:50:30;;;;;;;10.97;10.07;;;38.40;44.30;;;;;;4999464;28;20456;-87
2022/07/22 08:52:57;;;;;;;11.87;11.07;;;37.90;44.70;;;;;;5003137;28;20543;-88
2022/07/22 08:55:25;;;;;;;11.10;10.30;;;37.60;45.50;;;;;;5008858;28;20477;-88
2022/07/22 08:57:51;;;;;;;10.60;9.90;;;38.10;44.70;;;;;;5008167;28;20963;-89
2022/07/22 09:00:21;;;;;;;11.00;10.20;;;39.10;43.60;;;;;;5015755;28;20427;-88
2022/07/22 09:02:48;;;;;;;11.70;10.90;;;39.20;42.70;;;;;;5014577;28;20447;-88
2022/07/22 09:05:17;;;;;;;12.17;11.27;;;39.70;42.10;;;;;;5017527;28;20451;-87
2022/07/22 09:07:47;;;;;;;11.70;10.90;;;38.70;43.30;;;;;;5031238;28;20473;-88
2022/07/22 09:10:17;;;;;;;10.20;9.40;;;39.50;42.50;;;;;;5025968;28;20504;-87
2022/07/22 09:12:55;;;;;;;10.90;10.00;;;40.40;41.30;;;;;;5029677;28;20471;-88
2022/07/22 09:15:31;;;;;;;10.77;9.97;;;40.20;41.50;;;;;;5019029;28;20458;-87
2022/07/22 09:17:59;;;;;;;9.43;8.63;;;41.10;39.70;;;;;;5015244;28;20469;-88
2022/07/22 09:20:28;;;;;;;9.53;8.87;;;40.30;39.40;;;;;;5010263;28;20435;-88
2022/07/22 09:22:55;;;;;;;10.57;9.87;;;39.60;40.30;;;;;;5006806;28;20967;-88
2022/07/22 09:25:28;;;;;;;9.47;8.83;;;39.80;39.90;;;;;;5007900;28;20442;-88
2022/07/22 09:27:57;;;;;;;10.07;9.27;;;40.10;39.70;;;;;;5022784;28;20449;-87
2022/07/22 09:30:25;;;;;;;9.20;8.60;;;40.80;38.80;;;;;;5037337;28;20474;-87
2022/07/22 09:32:54;;;;;;;9.93;9.23;;;41.80;37.70;;;;;;5039295;28;20489;-87
2022/07/22 09:35:21;;;;;;;10.60;9.77;;;41.70;37.30;;;;;;5033720;28;20460;-90
2022/07/22 09:37:50;;;;;;;9.60;8.90;;;41.10;37.90;;;;;;5011344;28;20454;-89
2022/07/22 09:40:19;;;;;;;11.17;10.30;;;41.40;37.70;;;;;;5006622;28;20447;-88
2022/07/22 09:42:48;;;;;;;8.93;8.23;;;41.10;37.80;;;;;;5004122;28;20440;-88
2022/07/22 09:45:14;;;;;;;9.97;9.37;;;40.90;38.00;;;;;;5006686;28;20452;-86
2022/07/22 09:47:42;;;;;;;10.20;9.50;;;40.30;38.10;;;;;;5001926;28;20456;-87
2022/07/22 09:50:22;;;;;;;9.63;9.03;;;39.00;40.70;;;;;;5004206;28;20435;-87
2022/07/22 09:52:53;;;;;;;8.97;8.37;;;39.90;39.90;;;;;;5010790;28;20499;-86
2022/07/22 09:55:22;;;;;;;9.23;8.63;;;40.30;39.10;;;;;;5009911;28;20486;-87
2022/07/22 09:57:49;;;;;;;9.23;8.50;;;41.40;38.10;;;;;;5011856;28;20447;-88
2022/07/22 10:00:19;;;;;;;9.10;8.50;;;42.30;36.50;;;;;;5007340;28;20952;-87
2022/07/22 10:02:48;;;;;;;9.07;8.37;;;43.30;35.10;;;;;;5012058;28;20443;-88
2022/07/22 10:05:17;;;;;;;9.87;9.10;;;43.20;34.20;;;;;;5046849;23;20498;-86
2022/07/22 10:07:45;;;;;;;8.43;7.83;;;43.80;33.90;;;;;;5025546;28;20455;-83
2022/07/22 10:10:15;;;;;;;9.23;8.43;;;44.10;33.40;;;;;;5033545;28;20430;-86
2022/07/22 10:12:43;;;;;;;8.57;7.97;;;45.10;32.80;;;;;;5020093;28;20486;-88
2022/07/22 10:15:11;;;;;;;10.60;7.43;;;45.20;32.00;;;;;;5013382;28;20463;-88
2022/07/22 10:17:41;;;;;;;8.77;8.10;;;45.10;31.70;;;;;;5014053;28;20443;-84
2022/07/22 10:20:10;;;;;;;8.07;7.47;;;45.10;31.60;;;;;;5017810;28;20450;-84
2022/07/22 10:22:55;;;;;;;8.13;7.53;;;45.20;31.30;;;;;;5021549;28;20447;-83
2022/07/22 10:25:25;;;;;;;9.40;8.60;;;45.40;31.20;;;;;;5018148;28;20474;-84
2022/07/22 10:27:54;;;;;;;8.47;7.77;;;45.40;30.70;;;;;;5007823;28;20472;-85
2022/07/22 10:30:22;;;;;;;8.90;8.17;;;45.20;30.80;;;;;;5008437;28;20809;-84
2022/07/22 10:33:04;;;;;;;9.10;8.40;;;44.20;31.80;;;;;;5008798;28;20483;-84
2022/07/22 10:35:31;;;;;;;8.80;8.10;;;42.90;34.00;;;;;;5019099;28;20458;-81
2022/07/22 10:38:01;;;;;;;9.27;8.57;;;43.30;34.10;;;;;;5013525;28;20426;-79
2022/07/22 10:40:31;;;;;;;8.97;8.20;;;44.10;32.80;;;;;;5022854;28;20426;-79
2022/07/22 10:43:09;;;;;;;8.67;8.10;;;44.50;32.00;;;;;;5015155;28;20442;-81
2022/07/22 10:45:40;;;;;;;8.93;8.13;;;45.40;30.90;;;;;;5004314;28;20462;-81
2022/07/22 10:48:09;;;;;;;8.90;8.23;;;43.40;32.90;;;;;;5005634;28;20439;-83
2022/07/22 10:51:08;;;;;;;8.93;8.30;;;42.70;33.80;;;;;;5002186;28;20887;-81
2022/07/22 10:53:54;;;;;;;9.13;8.40;;;42.50;34.10;;;;;;4999472;28;20472;-80
2022/07/22 10:56:28;;;;;;;9.30;8.40;;;42.70;34.20;;;;;;5006166;28;20468;-82
2022/07/22 10:58:57;;;;;;;8.90;8.30;;;42.30;34.20;;;;;;4998911;28;20451;-83
2022/07/22 11:01:28;;;;;;;8.20;7.70;;;43.30;33.80;;;;;;5005896;28;20439;-82
2022/07/22 11:03:56;;;;;;;9.37;8.77;;;44.20;32.50;;;;;;5001212;28;20450;-81
2022/07/22 11:06:27;;;;;;;9.20;8.60;;;44.70;32.00;;;;;;4999219;28;20781;-82
2022/07/22 11:08:57;;;;;;;8.70;8.10;;;44.90;31.50;;;;;;5001673;28;20444;-82
2022/07/22 11:11:38;;;;;;;8.27;7.77;;;44.70;31.70;;;;;;5007369;28;20433;-82
2022/07/22 11:14:16;;;;;;;9.83;9.07;;;44.20;31.60;;;;;;5005693;28;20488;-80
2022/07/22 11:16:44;;;;;;;9.30;8.70;;;44.60;31.80;;;;;;5007222;28;20451;-79
2022/07/22 11:19:11;;;;;;;8.23;7.73;;;44.70;31.10;;;;;;5004524;28;20448;-79
2022/07/22 11:21:39;;;;;;;9.13;8.53;;;44.50;31.20;;;;;;5013044;28;20446;-81
2022/07/22 11:24:07;;;;;;;8.10;7.50;;;45.20;30.80;;;;;;5020462;28;20435;-83
2022/07/22 11:26:40;;;;;;;7.97;7.37;;;46.50;29.80;;;;;;5031937;28;20474;-84
2022/07/22 11:29:08;;;;;;;9.07;8.40;;;47.40;28.80;;;;;;5016980;28;20439;-82
2022/07/22 11:31:34;;;;;;;8.37;7.87;;;48.30;27.90;;;;;;5007844;28;20871;-82
2022/07/22 11:34:09;;;;;;;9.03;8.43;;;47.80;27.90;;;;;;5008190;28;20484;-81
2022/07/22 11:36:37;;;;;;;9.00;8.30;;;47.70;27.90;;;;;;5012266;28;20442;-85
2022/07/22 11:39:04;;;;;;;8.80;8.27;;;47.00;28.00;;;;;;5007128;28;20508;-84
2022/07/22 11:41:32;;;;;;;9.80;9.03;;;46.40;28.40;;;;;;4999640;28;20859;-83
2022/07/22 11:44:01;;;;;;;7.97;7.47;;;46.50;28.60;;;;;;5013394;28;20432;-85
2022/07/22 11:46:28;;;;;;;9.30;8.70;;;47.00;28.20;;;;;;5018377;28;20462;-85
2022/07/22 11:48:57;;;;;;;9.10;8.40;;;47.20;28.20;;;;;;5011893;28;20448;-85
2022/07/22 11:51:30;;;;;;;8.50;7.90;;;46.50;28.30;;;;;;5018718;28;20463;-85
2022/07/22 11:53:57;;;;;;;8.40;7.90;;;45.40;29.30;;;;;;5008930;28;20483;-86
2022/07/22 11:56:23;;;;;;;8.17;7.57;;;45.70;29.40;;;;;;5002892;28;20489;-83
2022/07/22 11:58:54;;;;;;;8.83;8.13;;;44.60;30.40;;;;;;4998004;28;20497;-83
2022/07/22 12:01:23;;;;;;;8.87;8.20;;;44.60;30.60;;;;;;5008666;28;20445;-84
2022/07/22 12:03:52;;;;;;;8.50;8.00;;;44.60;30.40;;;;;;5010842;28;20932;-84
2022/07/22 12:06:21;;;;;;;8.63;7.93;;;44.80;30.00;;;;;;5004391;28;20474;-83
2022/07/22 12:08:51;;;;;;;8.67;8.07;;;44.50;30.30;;;;;;5003671;28;20506;-81
2022/07/22 12:11:20;;;;;;;8.50;7.90;;;44.10;30.00;;;;;;4999803;28;20440;-80
2022/07/22 12:13:50;;;;;;;8.17;7.67;;;44.20;30.20;;;;;;5021860;28;20487;-79
2022/07/22 12:16:19;;;;;;;8.70;8.00;;;44.60;29.70;;;;;;5016571;28;20511;-79
2022/07/22 12:18:53;;;;;;;8.93;8.17;;;45.10;28.80;;;;;;5011738;28;20454;-82
2022/07/22 12:21:20;;;;;;;9.60;9.00;;;45.20;29.10;;;;;;5009468;28;20463;-83
2022/07/22 12:23:52;;;;;;;8.23;7.47;;;45.70;28.60;;;;;;5012909;28;20466;-83
2022/07/22 12:26:18;;;;;;;7.97;7.37;;;45.70;28.10;;;;;;5011717;28;20468;-83
2022/07/22 12:28:45;;;;;;;9.33;8.43;;;45.60;28.90;;;;;;5002021;28;20440;-83
2022/07/22 12:31:12;;;;;;;8.80;8.13;;;44.60;29.70;;;;;;5007813;28;20440;-84
2022/07/22 12:33:49;;;;;;;7.67;7.17;;;43.80;30.00;;;;;;5007622;28;20480;-82
2022/07/22 12:36:15;;;;;;;7.97;7.40;;;43.60;30.60;;;;;;5005956;28;20511;-82